sensor_id;sensor_type;location;lat;lon;timestamp;pressure;altitude;pressure_sealevel;temperature;humidity
53619;BME280;68717;53.040;18.488;2024-02-26T00:00:06;100323.53;;;3.65;100.00
53619;BME280;68717;53.040;18.488;2024-02-26T00:00:22;100328.84;;;3.65;100.00
53619;BME280;68717;53.040;18.488;2024-02-26T00:00:55;100328.00;;;3.64;100.00
53619;BME280;68717;53.040;18.488;2024-02-26T00:01:31;100324.50;;;3.64;100.00
53619;BME280;68717;53.040;18.488;2024-02-26T00:01:45;100331.59;;;3.63;100.00
53619;BME280;68717;53.040;18.488;2024-02-26T00:01:58;100325.44;;;3.63;100.00
53619;BME280;68717;53.040;18.488;2024-02-26T00:02:11;100327.25;;;3.62;100.00
53619;BME280;68717;53.040;18.488;2024-02-26T00:02:25;100330.75;;;3.63;100.00
53619;BME280;68717;53.040;18.488;2024-02-26T00:02:38;100328.09;;;3.63;100.00
53619;BME280;68717;53.040;18.488;2024-02-26T00:02:52;100335.19;;;3.62;100.00
53619;BME280;68717;53.040;18.488;2024-02-26T00:03:05;100329.91;;;3.62;100.00
53619;BME280;68717;53.040;18.488;2024-02-26T00:03:18;100337.00;;;3.62;100.00
53619;BME280;68717;53.040;18.488;2024-02-26T00:03:32;100337.00;;;3.62;100.00
53619;BME280;68717;53.040;18.488;2024-02-26T00:03:48;100328.22;;;3.61;100.00
53619;BME280;68717;53.040;18.488;2024-02-26T00:04:02;100334.44;;;3.60;100.00
53619;BME280;68717;53.040;18.488;2024-02-26T00:04:15;100333.69;;;3.58;100.00
53619;BME280;68717;53.040;18.488;2024-02-26T00:04:28;100325.75;;;3.58;100.00
53619;BME280;68717;53.040;18.488;2024-02-26T00:04:42;100324.97;;;3.56;100.00
53619;BME280;68717;53.040;18.488;2024-02-26T00:04:55;100328.59;;;3.55;100.00
53619;BME280;68717;53.040;18.488;2024-02-26T00:05:08;100327.72;;;3.55;100.00
53619;BME280;68717;53.040;18.488;2024-02-26T00:05:21;100323.47;;;3.52;100.00
53619;BME280;68717;53.040;18.488;2024-02-26T00:05:34;100334.94;;;3.53;100.00
53619;BME280;68717;53.040;18.488;2024-02-26T00:05:47;100327.94;;;3.52;100.00
53619;BME280;68717;53.040;18.488;2024-02-26T00:06:01;100328.13;;;3.49;100.00
53619;BME280;68717;53.040;18.488;2024-02-26T00:06:15;100328.13;;;3.49;100.00
53619;BME280;68717;53.040;18.488;2024-02-26T00:06:28;100327.25;;;3.48;100.00
53619;BME280;68717;53.040;18.488;2024-02-26T00:06:41;100334.38;;;3.47;100.00
53619;BME280;68717;53.040;18.488;2024-02-26T00:06:54;100333.63;;;3.45;100.00
53619;BME280;68717;53.040;18.488;2024-02-26T00:07:08;100330.03;;;3.46;100.00
53619;BME280;68717;53.040;18.488;2024-02-26T00:07:22;100330.13;;;3.45;100.00
53619;BME280;68717;53.040;18.488;2024-02-26T00:07:35;100331.94;;;3.44;100.00
53619;BME280;68717;53.040;18.488;2024-02-26T00:07:49;100332.84;;;3.43;100.00
53619;BME280;68717;53.040;18.488;2024-02-26T00:08:02;100332.84;;;3.43;100.00
53619;BME280;68717;53.040;18.488;2024-02-26T00:08:17;100332.84;;;3.43;100.00
53619;BME280;68717;53.040;18.488;2024-02-26T00:08:30;100323.22;;;3.42;100.00
53619;BME280;68717;53.040;18.488;2024-02-26T00:08:43;100328.53;;;3.42;100.00
53619;BME280;68717;53.040;18.488;2024-02-26T00:08:56;100333.81;;;3.42;100.00
53619;BME280;68717;53.040;18.488;2024-02-26T00:09:09;100331.25;;;3.41;100.00
53619;BME280;68717;53.040;18.488;2024-02-26T00:09:22;100331.25;;;3.41;100.00
53619;BME280;68717;53.040;18.488;2024-02-26T00:09:35;100327.78;;;3.40;100.00
53619;BME280;68717;53.040;18.488;2024-02-26T00:09:49;100336.66;;;3.39;100.00
53619;BME280;68717;53.040;18.488;2024-02-26T00:10:04;100333.16;;;3.39;100.00
53619;BME280;68717;53.040;18.488;2024-02-26T00:10:17;100328.81;;;3.38;100.00
53619;BME280;68717;53.040;18.488;2024-02-26T00:10:30;100328.91;;;3.36;100.00
53619;BME280;68717;53.040;18.488;2024-02-26T00:10:43;100333.38;;;3.36;100.00
53619;BME280;68717;53.040;18.488;2024-02-26T00:10:56;100328.16;;;3.34;100.00
53619;BME280;68717;53.040;18.488;2024-02-26T00:11:09;100324.75;;;3.32;100.00
53619;BME280;68717;53.040;18.488;2024-02-26T00:11:23;100332.69;;;3.32;100.00
53619;BME280;68717;53.040;18.488;2024-02-26T00:11:37;100333.66;;;3.31;100.00
53619;BME280;68717;53.040;18.488;2024-02-26T00:11:50;100326.63;;;3.30;100.00
53619;BME280;68717;53.040;18.488;2024-02-26T00:12:03;100320.59;;;3.28;100.00
53619;BME280;68717;53.040;18.488;2024-02-26T00:12:16;100326.72;;;3.29;100.00
53619;BME280;68717;53.040;18.488;2024-02-26T00:12:30;100326.84;;;3.27;100.00
53619;BME280;68717;53.040;18.488;2024-02-26T00:12:43;100332.97;;;3.28;100.00
53619;BME280;68717;53.040;18.488;2024-02-26T00:12:56;100333.06;;;3.26;100.00
53619;BME280;68717;53.040;18.488;2024-02-26T00:13:10;100327.03;;;3.24;100.00
53619;BME280;68717;53.040;18.488;2024-02-26T00:13:23;100331.38;;;3.25;100.00
53619;BME280;68717;53.040;18.488;2024-02-26T00:13:36;100329.66;;;3.24;100.00
53619;BME280;68717;53.040;18.488;2024-02-26T00:13:49;100327.97;;;3.23;100.00
53619;BME280;68717;53.040;18.488;2024-02-26T00:14:02;100324.50;;;3.22;100.00
53619;BME280;68717;53.040;18.488;2024-02-26T00:14:15;100329.78;;;3.22;100.00
53619;BME280;68717;53.040;18.488;2024-02-26T00:14:30;100328.91;;;3.22;100.00
53619;BME280;68717;53.040;18.488;2024-02-26T00:14:42;100330.63;;;3.23;100.00
53619;BME280;68717;53.040;18.488;2024-02-26T00:14:57;100327.97;;;3.23;100.00
53619;BME280;68717;53.040;18.488;2024-02-26T00:15:11;100327.97;;;3.23;100.00
53619;BME280;68717;53.040;18.488;2024-02-26T00:15:25;100328.81;;;3.23;100.00
53619;BME280;68717;53.040;18.488;2024-02-26T00:15:38;100327.13;;;3.22;100.00
53619;BME280;68717;53.040;18.488;2024-02-26T00:15:51;100333.28;;;3.23;100.00
53619;BME280;68717;53.040;18.488;2024-02-26T00:16:04;100330.72;;;3.21;100.00
53619;BME280;68717;53.040;18.488;2024-02-26T00:16:20;100326.25;;;3.22;100.00
53619;BME280;68717;53.040;18.488;2024-02-26T00:16:33;100322.78;;;3.21;100.00
53619;BME280;68717;53.040;18.488;2024-02-26T00:16:46;100326.25;;;3.22;100.00
53619;BME280;68717;53.040;18.488;2024-02-26T00:17:00;100326.25;;;3.22;100.00
53619;BME280;68717;53.040;18.488;2024-02-26T00:17:13;100328.91;;;3.22;100.00
53619;BME280;68717;53.040;18.488;2024-02-26T00:17:26;100329.88;;;3.21;100.00
53619;BME280;68717;53.040;18.488;2024-02-26T00:17:39;100321.06;;;3.20;100.00
53619;BME280;68717;53.040;18.488;2024-02-26T00:17:53;100322.84;;;3.20;100.00
53619;BME280;68717;53.040;18.488;2024-02-26T00:18:06;100332.53;;;3.21;100.00
53619;BME280;68717;53.040;18.488;2024-02-26T00:18:20;100328.16;;;3.20;100.00
53619;BME280;68717;53.040;18.488;2024-02-26T00:18:33;100329.03;;;3.20;100.00
53619;BME280;68717;53.040;18.488;2024-02-26T00:18:47;100329.88;;;3.21;100.00
53619;BME280;68717;53.040;18.488;2024-02-26T00:19:02;100329.88;;;3.21;100.00
53619;BME280;68717;53.040;18.488;2024-02-26T00:19:16;100329.88;;;3.21;100.00
53619;BME280;68717;53.040;18.488;2024-02-26T00:19:29;100329.88;;;3.21;100.00
53619;BME280;68717;53.040;18.488;2024-02-26T00:19:42;100328.16;;;3.20;100.00
53619;BME280;68717;53.040;18.488;2024-02-26T00:19:56;100333.38;;;3.21;100.00
53619;BME280;68717;53.040;18.488;2024-02-26T00:20:10;100331.69;;;3.20;100.00
53619;BME280;68717;53.040;18.488;2024-02-26T00:20:23;100332.44;;;3.22;100.00
53619;BME280;68717;53.040;18.488;2024-02-26T00:20:36;100332.44;;;3.22;100.00
53619;BME280;68717;53.040;18.488;2024-02-26T00:20:49;100334.22;;;3.22;100.00
53619;BME280;68717;53.040;18.488;2024-02-26T00:21:04;100327.97;;;3.23;100.00
53619;BME280;68717;53.040;18.488;2024-02-26T00:21:17;100330.63;;;3.23;100.00
53619;BME280;68717;53.040;18.488;2024-02-26T00:21:30;100324.50;;;3.22;100.00
53619;BME280;68717;53.040;18.488;2024-02-26T00:21:43;100327.97;;;3.23;100.00
53619;BME280;68717;53.040;18.488;2024-02-26T00:21:56;100330.63;;;3.23;100.00
53619;BME280;68717;53.040;18.488;2024-02-26T00:22:09;100329.66;;;3.24;100.00
53619;BME280;68717;53.040;18.488;2024-02-26T00:22:22;100331.47;;;3.23;100.00
53619;BME280;68717;53.040;18.488;2024-02-26T00:22:36;100328.81;;;3.23;100.00
53619;BME280;68717;53.040;18.488;2024-02-26T00:22:50;100322.69;;;3.23;100.00
53619;BME280;68717;53.040;18.488;2024-02-26T00:23:03;100329.66;;;3.24;100.00
53619;BME280;68717;53.040;18.488;2024-02-26T00:23:16;100327.97;;;3.23;100.00
53619;BME280;68717;53.040;18.488;2024-02-26T00:23:29;100328.81;;;3.23;100.00
53619;BME280;68717;53.040;18.488;2024-02-26T00:23:42;100326.25;;;3.22;100.00
53619;BME280;68717;53.040;18.488;2024-02-26T00:23:55;100326.25;;;3.22;100.00
53619;BME280;68717;53.040;18.488;2024-02-26T00:24:08;100326.25;;;3.22;100.00
53619;BME280;68717;53.040;18.488;2024-02-26T00:24:21;100329.88;;;3.21;100.00
53619;BME280;68717;53.040;18.488;2024-02-26T00:24:34;100322.84;;;3.20;100.00
53619;BME280;68717;53.040;18.488;2024-02-26T00:24:48;100330.81;;;3.20;100.00
53619;BME280;68717;53.040;18.488;2024-02-26T00:25:01;100325.50;;;3.20;100.00
53619;BME280;68717;53.040;18.488;2024-02-26T00:25:14;100325.50;;;3.20;100.00
53619;BME280;68717;53.040;18.488;2024-02-26T00:25:27;100330.81;;;3.20;100.00
53619;BME280;68717;53.040;18.488;2024-02-26T00:25:40;100333.44;;;3.20;100.00
53619;BME280;68717;53.040;18.488;2024-02-26T00:25:55;100330.81;;;3.20;100.00
53619;BME280;68717;53.040;18.488;2024-02-26T00:26:08;100337.91;;;3.19;100.00
53619;BME280;68717;53.040;18.488;2024-02-26T00:26:23;100325.50;;;3.20;100.00
53619;BME280;68717;53.040;18.488;2024-02-26T00:26:36;100330.81;;;3.20;100.00
53619;BME280;68717;53.040;18.488;2024-02-26T00:26:49;100337.06;;;3.19;100.00
53619;BME280;68717;53.040;18.488;2024-02-26T00:27:06;100331.75;;;3.19;100.00
53619;BME280;68717;53.040;18.488;2024-02-26T00:27:19;100331.75;;;3.19;100.00
53619;BME280;68717;53.040;18.488;2024-02-26T00:27:32;100329.13;;;3.19;100.00
53619;BME280;68717;53.040;18.488;2024-02-26T00:27:45;100335.38;;;3.18;100.00
53619;BME280;68717;53.040;18.488;2024-02-26T00:27:58;100330.06;;;3.18;100.00
53619;BME280;68717;53.040;18.488;2024-02-26T00:28:11;100326.56;;;3.17;100.00
53619;BME280;68717;53.040;18.488;2024-02-26T00:28:26;100330.06;;;3.18;100.00
53619;BME280;68717;53.040;18.488;2024-02-26T00:28:39;100333.56;;;3.18;100.00
53619;BME280;68717;53.040;18.488;2024-02-26T00:28:53;100324.78;;;3.18;100.00
53619;BME280;68717;53.040;18.488;2024-02-26T00:29:06;100333.66;;;3.17;100.00
53619;BME280;68717;53.040;18.488;2024-02-26T00:29:19;100328.34;;;3.17;100.00
53619;BME280;68717;53.040;18.488;2024-02-26T00:29:33;100328.34;;;3.17;100.00
53619;BME280;68717;53.040;18.488;2024-02-26T00:29:46;100326.56;;;3.17;100.00
53619;BME280;68717;53.040;18.488;2024-02-26T00:29:59;100338.94;;;3.17;100.00
53619;BME280;68717;53.040;18.488;2024-02-26T00:30:13;100323.06;;;3.17;100.00
53619;BME280;68717;53.040;18.488;2024-02-26T00:30:26;100331.97;;;3.16;100.00
53619;BME280;68717;53.040;18.488;2024-02-26T00:30:39;100337.25;;;3.16;100.00
53619;BME280;68717;53.040;18.488;2024-02-26T00:30:52;100329.31;;;3.16;100.00
53619;BME280;68717;53.040;18.488;2024-02-26T00:31:09;100327.59;;;3.15;100.00
53619;BME280;68717;53.040;18.488;2024-02-26T00:31:23;100332.91;;;3.15;100.00
53619;BME280;68717;53.040;18.488;2024-02-26T00:31:36;100329.41;;;3.14;100.00
53619;BME280;68717;53.040;18.488;2024-02-26T00:31:50;100330.34;;;3.13;100.00
53619;BME280;68717;53.040;18.488;2024-02-26T00:32:04;100327.69;;;3.13;100.00
53619;BME280;68717;53.040;18.488;2024-02-26T00:32:17;100332.13;;;3.13;100.00
53619;BME280;68717;53.040;18.488;2024-02-26T00:32:30;100329.50;;;3.13;100.00
53619;BME280;68717;53.040;18.488;2024-02-26T00:32:43;100330.44;;;3.12;100.00
53619;BME280;68717;53.040;18.488;2024-02-26T00:32:56;100328.66;;;3.12;100.00
53619;BME280;68717;53.040;18.488;2024-02-26T00:33:09;100328.66;;;3.12;100.00
53619;BME280;68717;53.040;18.488;2024-02-26T00:33:22;100330.44;;;3.12;100.00
53619;BME280;68717;53.040;18.488;2024-02-26T00:33:36;100327.88;;;3.10;100.00
53619;BME280;68717;53.040;18.488;2024-02-26T00:33:49;100327.81;;;3.12;100.00
53619;BME280;68717;53.040;18.488;2024-02-26T00:34:03;100328.72;;;3.11;100.00
53619;BME280;68717;53.040;18.488;2024-02-26T00:34:16;100326.94;;;3.11;100.00
53619;BME280;68717;53.040;18.488;2024-02-26T00:34:29;100330.44;;;3.12;100.00
53619;BME280;68717;53.040;18.488;2024-02-26T00:34:43;100327.81;;;3.12;100.00
53619;BME280;68717;53.040;18.488;2024-02-26T00:34:56;100334.88;;;3.11;100.00
53619;BME280;68717;53.040;18.488;2024-02-26T00:35:09;100330.44;;;3.12;100.00
53619;BME280;68717;53.040;18.488;2024-02-26T00:35:22;100329.56;;;3.11;100.00
53619;BME280;68717;53.040;18.488;2024-02-26T00:35:35;100327.03;;;3.10;100.00
53619;BME280;68717;53.040;18.488;2024-02-26T00:35:49;100336.69;;;3.11;100.00
53619;BME280;68717;53.040;18.488;2024-02-26T00:36:02;100331.38;;;3.11;100.00
53619;BME280;68717;53.040;18.488;2024-02-26T00:36:15;100333.19;;;3.10;100.00
53619;BME280;68717;53.040;18.488;2024-02-26T00:36:28;100328.72;;;3.11;100.00
53619;BME280;68717;53.040;18.488;2024-02-26T00:36:41;100331.50;;;3.09;100.00
53619;BME280;68717;53.040;18.488;2024-02-26T00:36:54;100335.06;;;3.08;100.00
53619;BME280;68717;53.040;18.488;2024-02-26T00:37:07;100332.44;;;3.08;100.00
53619;BME280;68717;53.040;18.488;2024-02-26T00:37:21;100334.22;;;3.08;100.00
53619;BME280;68717;53.040;18.488;2024-02-26T00:37:34;100335.91;;;3.09;100.00
53619;BME280;68717;53.040;18.488;2024-02-26T00:37:47;100333.38;;;3.07;100.00
53619;BME280;68717;53.040;18.488;2024-02-26T00:38:00;100334.22;;;3.08;100.00
53619;BME280;68717;53.040;18.488;2024-02-26T00:38:14;100334.22;;;3.08;100.00
53619;BME280;68717;53.040;18.488;2024-02-26T00:38:27;100336.03;;;3.07;100.00
53619;BME280;68717;53.040;18.488;2024-02-26T00:38:40;100334.22;;;3.08;100.00
53619;BME280;68717;53.040;18.488;2024-02-26T00:38:53;100332.50;;;3.06;100.00
53619;BME280;68717;53.040;18.488;2024-02-26T00:39:07;100328.94;;;3.08;100.00
53619;BME280;68717;53.040;18.488;2024-02-26T00:39:20;100334.22;;;3.08;100.00
53619;BME280;68717;53.040;18.488;2024-02-26T00:39:34;100334.22;;;3.08;100.00
53619;BME280;68717;53.040;18.488;2024-02-26T00:39:48;100332.44;;;3.08;100.00
53619;BME280;68717;53.040;18.488;2024-02-26T00:40:02;100332.44;;;3.08;100.00
53619;BME280;68717;53.040;18.488;2024-02-26T00:40:15;100333.38;;;3.07;100.00
53619;BME280;68717;53.040;18.488;2024-02-26T00:40:28;100328.94;;;3.08;100.00
53619;BME280;68717;53.040;18.488;2024-02-26T00:40:41;100328.94;;;3.08;100.00
53619;BME280;68717;53.040;18.488;2024-02-26T00:40:54;100331.59;;;3.08;100.00
53619;BME280;68717;53.040;18.488;2024-02-26T00:41:07;100328.94;;;3.08;100.00
53619;BME280;68717;53.040;18.488;2024-02-26T00:41:20;100331.59;;;3.08;100.00
53619;BME280;68717;53.040;18.488;2024-02-26T00:41:38;100333.28;;;3.09;100.00
53619;BME280;68717;53.040;18.488;2024-02-26T00:41:51;100335.91;;;3.09;100.00
53619;BME280;68717;53.040;18.488;2024-02-26T00:42:04;100328.94;;;3.08;100.00
53619;BME280;68717;53.040;18.488;2024-02-26T00:42:17;100329.78;;;3.08;100.00
53619;BME280;68717;53.040;18.488;2024-02-26T00:42:30;100333.38;;;3.07;100.00
53619;BME280;68717;53.040;18.488;2024-02-26T00:42:44;100334.22;;;3.08;100.00
53619;BME280;68717;53.040;18.488;2024-02-26T00:42:58;100335.91;;;3.09;100.00
53619;BME280;68717;53.040;18.488;2024-02-26T00:43:11;100330.63;;;3.09;100.00
53619;BME280;68717;53.040;18.488;2024-02-26T00:43:24;100335.91;;;3.09;100.00
53619;BME280;68717;53.040;18.488;2024-02-26T00:43:37;100333.28;;;3.09;100.00
53619;BME280;68717;53.040;18.488;2024-02-26T00:43:51;100331.50;;;3.09;100.00
53619;BME280;68717;53.040;18.488;2024-02-26T00:44:04;100330.63;;;3.09;100.00
53619;BME280;68717;53.040;18.488;2024-02-26T00:44:17;100332.34;;;3.10;100.00
53619;BME280;68717;53.040;18.488;2024-02-26T00:44:33;100336.69;;;3.11;100.00
53619;BME280;68717;53.040;18.488;2024-02-26T00:44:46;100337.63;;;3.10;100.00
53619;BME280;68717;53.040;18.488;2024-02-26T00:44:59;100327.88;;;3.10;100.00
53619;BME280;68717;53.040;18.488;2024-02-26T00:45:12;100334.16;;;3.09;100.00
53619;BME280;68717;53.040;18.488;2024-02-26T00:45:25;100333.19;;;3.10;100.00
53619;BME280;68717;53.040;18.488;2024-02-26T00:45:38;100334.03;;;3.11;100.00
53619;BME280;68717;53.040;18.488;2024-02-26T00:45:51;100332.34;;;3.10;100.00
53619;BME280;68717;53.040;18.488;2024-02-26T00:46:05;100327.03;;;3.10;100.00
53619;BME280;68717;53.040;18.488;2024-02-26T00:46:18;100332.34;;;3.10;100.00
53619;BME280;68717;53.040;18.488;2024-02-26T00:46:31;100329.69;;;3.10;100.00
53619;BME280;68717;53.040;18.488;2024-02-26T00:46:44;100332.34;;;3.10;100.00
53619;BME280;68717;53.040;18.488;2024-02-26T00:46:57;100338.47;;;3.10;100.00
53619;BME280;68717;53.040;18.488;2024-02-26T00:47:10;100332.34;;;3.10;100.00
53619;BME280;68717;53.040;18.488;2024-02-26T00:47:23;100334.16;;;3.09;100.00
53619;BME280;68717;53.040;18.488;2024-02-26T00:47:36;100331.50;;;3.09;100.00
53619;BME280;68717;53.040;18.488;2024-02-26T00:47:49;100335.91;;;3.09;100.00
53619;BME280;68717;53.040;18.488;2024-02-26T00:48:02;100332.44;;;3.08;100.00
53619;BME280;68717;53.040;18.488;2024-02-26T00:48:17;100325.44;;;3.07;100.00
53619;BME280;68717;53.040;18.488;2024-02-26T00:48:31;100328.09;;;3.07;100.00
53619;BME280;68717;53.040;18.488;2024-02-26T00:48:44;100328.09;;;3.07;100.00
53619;BME280;68717;53.040;18.488;2024-02-26T00:48:57;100325.53;;;3.05;100.00
53619;BME280;68717;53.040;18.488;2024-02-26T00:49:10;100329.03;;;3.06;100.00
53619;BME280;68717;53.040;18.488;2024-02-26T00:49:24;100330.91;;;3.04;100.00
53619;BME280;68717;53.040;18.488;2024-02-26T00:49:37;100328.25;;;3.04;100.00
53619;BME280;68717;53.040;18.488;2024-02-26T00:49:50;100331.88;;;3.03;100.00
53619;BME280;68717;53.040;18.488;2024-02-26T00:50:04;100331.00;;;3.02;100.00
53619;BME280;68717;53.040;18.488;2024-02-26T00:50:17;100334.59;;;3.01;100.00
53619;BME280;68717;53.040;18.488;2024-02-26T00:50:30;100327.63;;;3.00;100.00
53619;BME280;68717;53.040;18.488;2024-02-26T00:50:43;100331.19;;;2.99;100.00
53619;BME280;68717;53.040;18.488;2024-02-26T00:50:56;100330.34;;;2.99;100.00
53619;BME280;68717;53.040;18.488;2024-02-26T00:51:09;100328.63;;;2.98;100.00
53619;BME280;68717;53.040;18.488;2024-02-26T00:51:22;100326.94;;;2.97;100.00
53619;BME280;68717;53.040;18.488;2024-02-26T00:51:37;100326.09;;;2.96;100.00
53619;BME280;68717;53.040;18.488;2024-02-26T00:51:50;100324.38;;;2.95;100.00
53619;BME280;68717;53.040;18.488;2024-02-26T00:52:03;100322.56;;;2.96;100.00
53619;BME280;68717;53.040;18.488;2024-02-26T00:52:16;100325.34;;;2.94;100.00
53619;BME280;68717;53.040;18.488;2024-02-26T00:52:29;100320.97;;;2.93;100.00
53619;BME280;68717;53.040;18.488;2024-02-26T00:52:42;100321.94;;;2.92;100.00
53619;BME280;68717;53.040;18.488;2024-02-26T00:52:55;100325.44;;;2.93;100.00
53619;BME280;68717;53.040;18.488;2024-02-26T00:53:08;100325.44;;;2.93;100.00
53619;BME280;68717;53.040;18.488;2024-02-26T00:53:22;100324.59;;;2.92;100.00
53619;BME280;68717;53.040;18.488;2024-02-26T00:53:35;100329.03;;;2.92;100.00
53619;BME280;68717;53.040;18.488;2024-02-26T00:53:48;100329.03;;;2.92;100.00
53619;BME280;68717;53.040;18.488;2024-02-26T00:54:01;100321.94;;;2.92;100.00
53619;BME280;68717;53.040;18.488;2024-02-26T00:54:15;100319.28;;;2.92;100.00
53619;BME280;68717;53.040;18.488;2024-02-26T00:54:28;100322.88;;;2.91;100.00
53619;BME280;68717;53.040;18.488;2024-02-26T00:54:41;100327.31;;;2.91;100.00
53619;BME280;68717;53.040;18.488;2024-02-26T00:54:53;100325.50;;;2.91;100.00
53619;BME280;68717;53.040;18.488;2024-02-26T00:55:07;100324.59;;;2.92;100.00
53619;BME280;68717;53.040;18.488;2024-02-26T00:55:21;100330.72;;;2.93;100.00
53619;BME280;68717;53.040;18.488;2024-02-26T00:55:34;100329.03;;;2.92;100.00
53619;BME280;68717;53.040;18.488;2024-02-26T00:55:47;100324.59;;;2.92;100.00
53619;BME280;68717;53.040;18.488;2024-02-26T00:56:00;100325.50;;;2.91;100.00
53619;BME280;68717;53.040;18.488;2024-02-26T00:56:13;100326.28;;;2.93;100.00
53619;BME280;68717;53.040;18.488;2024-02-26T00:56:26;100328.06;;;2.93;100.00
53619;BME280;68717;53.040;18.488;2024-02-26T00:56:39;100326.28;;;2.93;100.00
53619;BME280;68717;53.040;18.488;2024-02-26T00:56:52;100326.28;;;2.93;100.00
53619;BME280;68717;53.040;18.488;2024-02-26T00:57:06;100326.28;;;2.93;100.00
53619;BME280;68717;53.040;18.488;2024-02-26T00:57:20;100320.97;;;2.93;100.00
53619;BME280;68717;53.040;18.488;2024-02-26T00:57:33;100326.28;;;2.93;100.00
53619;BME280;68717;53.040;18.488;2024-02-26T00:57:46;100320.97;;;2.93;100.00
53619;BME280;68717;53.040;18.488;2024-02-26T00:57:59;100326.19;;;2.95;100.00
53619;BME280;68717;53.040;18.488;2024-02-26T00:58:12;100320.91;;;2.95;100.00
53619;BME280;68717;53.040;18.488;2024-02-26T00:58:25;100327.03;;;2.95;100.00
53619;BME280;68717;53.040;18.488;2024-02-26T00:58:39;100327.03;;;2.95;100.00
53619;BME280;68717;53.040;18.488;2024-02-26T00:58:52;100321.75;;;2.95;100.00
53619;BME280;68717;53.040;18.488;2024-02-26T00:59:05;100327.03;;;2.95;100.00
53619;BME280;68717;53.040;18.488;2024-02-26T00:59:19;100326.09;;;2.96;100.00
53619;BME280;68717;53.040;18.488;2024-02-26T00:59:33;100326.09;;;2.96;100.00
53619;BME280;68717;53.040;18.488;2024-02-26T00:59:46;100319.94;;;2.96;100.00
53619;BME280;68717;53.040;18.488;2024-02-26T00:59:59;100319.94;;;2.96;100.00
53619;BME280;68717;53.040;18.488;2024-02-26T01:00:14;100326.09;;;2.96;100.00
53619;BME280;68717;53.040;18.488;2024-02-26T01:00:27;100320.81;;;2.96;100.00
53619;BME280;68717;53.040;18.488;2024-02-26T01:00:40;100321.66;;;2.97;100.00
53619;BME280;68717;53.040;18.488;2024-02-26T01:00:54;100320.81;;;2.96;100.00
53619;BME280;68717;53.040;18.488;2024-02-26T01:01:08;100323.47;;;2.96;100.00
53619;BME280;68717;53.040;18.488;2024-02-26T01:01:22;100320.81;;;2.96;100.00
53619;BME280;68717;53.040;18.488;2024-02-26T01:01:36;100323.47;;;2.96;100.00
53619;BME280;68717;53.040;18.488;2024-02-26T01:01:49;100320.81;;;2.96;100.00
53619;BME280;68717;53.040;18.488;2024-02-26T01:02:03;100320.81;;;2.96;100.00
53619;BME280;68717;53.040;18.488;2024-02-26T01:02:18;100320.81;;;2.96;100.00
53619;BME280;68717;53.040;18.488;2024-02-26T01:02:31;100325.22;;;2.96;100.00
53619;BME280;68717;53.040;18.488;2024-02-26T01:02:44;100327.78;;;2.97;100.00
53619;BME280;68717;53.040;18.488;2024-02-26T01:02:59;100319.09;;;2.95;100.00
53619;BME280;68717;53.040;18.488;2024-02-26T01:03:13;100326.94;;;2.97;100.00
53619;BME280;68717;53.040;18.488;2024-02-26T01:03:28;100326.09;;;2.96;100.00
53619;BME280;68717;53.040;18.488;2024-02-26T01:03:41;100322.56;;;2.96;100.00
53619;BME280;68717;53.040;18.488;2024-02-26T01:03:54;100319.94;;;2.96;100.00
53619;BME280;68717;53.040;18.488;2024-02-26T01:04:08;100322.56;;;2.96;100.00
53619;BME280;68717;53.040;18.488;2024-02-26T01:04:21;100322.56;;;2.96;100.00
53619;BME280;68717;53.040;18.488;2024-02-26T01:04:34;100325.22;;;2.96;100.00
53619;BME280;68717;53.040;18.488;2024-02-26T01:04:47;100324.38;;;2.95;100.00
53619;BME280;68717;53.040;18.488;2024-02-26T01:05:00;100327.88;;;2.96;100.00
53619;BME280;68717;53.040;18.488;2024-02-26T01:05:13;100326.19;;;2.95;100.00
53619;BME280;68717;53.040;18.488;2024-02-26T01:05:26;100327.03;;;2.95;100.00
53619;BME280;68717;53.040;18.488;2024-02-26T01:05:40;100324.38;;;2.95;100.00
53619;BME280;68717;53.040;18.488;2024-02-26T01:05:53;100324.38;;;2.95;100.00
53619;BME280;68717;53.040;18.488;2024-02-26T01:06:10;100329.69;;;2.95;100.00
53619;BME280;68717;53.040;18.488;2024-02-26T01:06:24;100322.69;;;2.94;100.00
53619;BME280;68717;53.040;18.488;2024-02-26T01:06:37;100323.53;;;2.95;100.00
53619;BME280;68717;53.040;18.488;2024-02-26T01:06:50;100319.09;;;2.95;100.00
53619;BME280;68717;53.040;18.488;2024-02-26T01:07:03;100322.69;;;2.94;100.00
53619;BME280;68717;53.040;18.488;2024-02-26T01:07:17;100322.69;;;2.94;100.00
53619;BME280;68717;53.040;18.488;2024-02-26T01:07:30;100327.13;;;2.94;100.00
53619;BME280;68717;53.040;18.488;2024-02-26T01:07:48;100326.28;;;2.93;100.00
53619;BME280;68717;53.040;18.488;2024-02-26T01:08:01;100317.50;;;2.93;100.00
53619;BME280;68717;53.040;18.488;2024-02-26T01:08:15;100323.63;;;2.93;100.00
53619;BME280;68717;53.040;18.488;2024-02-26T01:08:28;100320.13;;;2.93;100.00
53619;BME280;68717;53.040;18.488;2024-02-26T01:08:42;100316.66;;;2.92;100.00
53619;BME280;68717;53.040;18.488;2024-02-26T01:08:55;100319.28;;;2.92;100.00
53619;BME280;68717;53.040;18.488;2024-02-26T01:09:08;100324.59;;;2.92;100.00
53619;BME280;68717;53.040;18.488;2024-02-26T01:09:22;100329.03;;;2.92;100.00
53619;BME280;68717;53.040;18.488;2024-02-26T01:09:35;100320.22;;;2.91;100.00
53619;BME280;68717;53.040;18.488;2024-02-26T01:09:48;100325.50;;;2.91;100.00
53619;BME280;68717;53.040;18.488;2024-02-26T01:10:01;100322.09;;;2.89;100.00